This is the latest recevied weather packets stored in our database for station/object KV4OP. If no packets are shown the sender has not sent any weather packets the latest 10 day(s).
| Time | Temp. | Humidity | Pressure | Rain* | Wind** | Luminosity | Snow |
|---|---|---|---|---|---|---|---|
| 1777753817 | 21.67° C | 85% | 1012.1 hPa | 8.89 mm | - | - | - |
| 1777753516 | 21.67° C | 85% | 1012.5 hPa | 8.89 mm | - | - | - |
| 1777753216 | 21.67° C | 85% | 1012.6 hPa | 8.89 mm | - | - | - |
| 1777752915 | 21.67° C | 85% | 1012.2 hPa | 8.64 mm | - | - | - |
| 1777752617 | 21.67° C | 84% | 1012.3 hPa | 8.64 mm | - | - | - |
| 1777752314 | 21.67° C | 84% | 1012.6 hPa | 4.57 mm | - | - | - |
| 1777752014 | 21.67° C | 84% | 1012.1 hPa | 4.32 mm | - | - | - |
| 1777751715 | 21.67° C | 83% | 1011.7 hPa | 4.32 mm | - | - | - |
| 1777751113 | 23.89° C | 78% | 1011.7 hPa | 3.05 mm | - | - | - |
| 1777750513 | 26.11° C | 69% | 1011.2 hPa | 0 mm | - | - | - |
| 1777750211 | 28.33° C | 64% | 1010.7 hPa | 0 mm | - | - | - |
| 1777749914 | 30° C | 63% | 1011.1 hPa | 0 mm | - | - | - |
| 1777749610 | 30° C | 63% | 1010.7 hPa | 0 mm | - | - | - |
| 1777749310 | 30° C | 63% | 1010.7 hPa | 0 mm | - | - | - |
| 1777749011 | 30.56° C | 63% | 1010.7 hPa | 0 mm | - | - | - |
| 1777748709 | 30.56° C | 62% | 1010.7 hPa | 0 mm | - | - | - |
| 1777747209 | 30° C | 61% | 1010.8 hPa | 0 mm | - | - | - |
| 1777746309 | 31.11° C | 63% | 1010.6 hPa | 0 mm | - | - | - |
| 1777745708 | 30.56° C | 63% | 1010.8 hPa | 0 mm | - | - | - |
| 1777745408 | 30.56° C | 62% | 1010.6 hPa | 0 mm | - | - | - |
| 1777745106 | 30.56° C | 62% | 1010.6 hPa | 0 mm | - | - | - |
| 1777744806 | 30.56° C | 62% | 1010.7 hPa | 0 mm | - | - | - |
| 1777744206 | 30.56° C | 61% | 1010.7 hPa | 0 mm | - | - | - |
| 1777743006 | 30.56° C | 62% | 1010.8 hPa | 0 mm | - | - | - |
| 1777742252 | 31.11° C | 61% | 1011.1 hPa | 0 mm | - | - | - |
* Rain latest hour (hover to see other rain measurements)
** Current wind speed in m/s (hover to see current wind gust speed)